sensor_id;sensor_type;location;lat;lon;timestamp;P1;durP1;ratioP1;P2;durP2;ratioP2
15915;SDS011;8057;47.830;-3.870;2023-08-30T00:02:45;1.47;;;1.37;;
15915;SDS011;8057;47.830;-3.870;2023-08-30T00:07:15;1.60;;;1.50;;
15915;SDS011;8057;47.830;-3.870;2023-08-30T00:11:47;1.53;;;1.40;;
15915;SDS011;8057;47.830;-3.870;2023-08-30T00:16:08;2.37;;;1.50;;
15915;SDS011;8057;47.830;-3.870;2023-08-30T00:20:44;2.33;;;1.60;;
15915;SDS011;8057;47.830;-3.870;2023-08-30T00:25:01;2.10;;;1.40;;
15915;SDS011;8057;47.830;-3.870;2023-08-30T00:29:30;3.20;;;1.63;;
15915;SDS011;8057;47.830;-3.870;2023-08-30T00:33:52;2.00;;;1.70;;
15915;SDS011;8057;47.830;-3.870;2023-08-30T00:38:21;1.90;;;1.40;;
15915;SDS011;8057;47.830;-3.870;2023-08-30T00:42:52;1.93;;;1.50;;
15915;SDS011;8057;47.830;-3.870;2023-08-30T00:47:22;3.37;;;1.90;;
15915;SDS011;8057;47.830;-3.870;2023-08-30T00:51:48;2.73;;;1.50;;
15915;SDS011;8057;47.830;-3.870;2023-08-30T00:56:15;2.97;;;1.90;;
15915;SDS011;8057;47.830;-3.870;2023-08-30T01:00:47;2.77;;;1.50;;
15915;SDS011;8057;47.830;-3.870;2023-08-30T01:05:12;2.10;;;1.50;;
15915;SDS011;8057;47.830;-3.870;2023-08-30T01:09:35;3.53;;;1.53;;
15915;SDS011;8057;47.830;-3.870;2023-08-30T01:13:51;2.50;;;1.30;;
15915;SDS011;8057;47.830;-3.870;2023-08-30T01:18:09;2.60;;;1.70;;
15915;SDS011;8057;47.830;-3.870;2023-08-30T01:22:47;3.50;;;1.73;;
15915;SDS011;8057;47.830;-3.870;2023-08-30T01:27:17;3.03;;;1.50;;
15915;SDS011;8057;47.830;-3.870;2023-08-30T01:31:49;1.67;;;1.30;;
15915;SDS011;8057;47.830;-3.870;2023-08-30T01:36:18;2.97;;;1.40;;
15915;SDS011;8057;47.830;-3.870;2023-08-30T01:40:30;3.50;;;1.43;;
15915;SDS011;8057;47.830;-3.870;2023-08-30T01:44:56;2.90;;;1.53;;
15915;SDS011;8057;47.830;-3.870;2023-08-30T01:49:22;3.10;;;1.60;;
15915;SDS011;8057;47.830;-3.870;2023-08-30T01:53:45;3.97;;;1.73;;
15915;SDS011;8057;47.830;-3.870;2023-08-30T01:58:12;4.63;;;1.90;;
15915;SDS011;8057;47.830;-3.870;2023-08-30T02:02:45;3.37;;;1.67;;
15915;SDS011;8057;47.830;-3.870;2023-08-30T02:07:11;4.70;;;2.17;;
15915;SDS011;8057;47.830;-3.870;2023-08-30T02:11:48;4.10;;;2.37;;
15915;SDS011;8057;47.830;-3.870;2023-08-30T02:16:04;7.47;;;2.63;;
15915;SDS011;8057;47.830;-3.870;2023-08-30T02:20:19;7.33;;;2.83;;
15915;SDS011;8057;47.830;-3.870;2023-08-30T02:24:28;5.27;;;2.30;;
15915;SDS011;8057;47.830;-3.870;2023-08-30T02:28:38;4.73;;;2.60;;
15915;SDS011;8057;47.830;-3.870;2023-08-30T02:32:49;5.13;;;2.23;;
15915;SDS011;8057;47.830;-3.870;2023-08-30T02:37:06;3.20;;;2.10;;
15915;SDS011;8057;47.830;-3.870;2023-08-30T02:41:19;7.00;;;2.63;;
15915;SDS011;8057;47.830;-3.870;2023-08-30T02:45:41;5.47;;;2.50;;
15915;SDS011;8057;47.830;-3.870;2023-08-30T02:49:56;4.30;;;2.53;;
15915;SDS011;8057;47.830;-3.870;2023-08-30T02:54:07;5.00;;;2.23;;
15915;SDS011;8057;47.830;-3.870;2023-08-30T02:58:20;5.33;;;2.23;;
15915;SDS011;8057;47.830;-3.870;2023-08-30T03:02:49;4.93;;;2.67;;
15915;SDS011;8057;47.830;-3.870;2023-08-30T03:07:01;4.87;;;2.77;;
15915;SDS011;8057;47.830;-3.870;2023-08-30T03:11:18;4.03;;;1.97;;
15915;SDS011;8057;47.830;-3.870;2023-08-30T03:15:30;3.93;;;2.53;;
15915;SDS011;8057;47.830;-3.870;2023-08-30T03:19:42;4.90;;;2.00;;
15915;SDS011;8057;47.830;-3.870;2023-08-30T03:23:52;2.70;;;2.40;;
15915;SDS011;8057;47.830;-3.870;2023-08-30T03:28:07;3.40;;;1.80;;
15915;SDS011;8057;47.830;-3.870;2023-08-30T03:32:19;3.70;;;2.17;;
15915;SDS011;8057;47.830;-3.870;2023-08-30T03:36:29;4.47;;;2.43;;
15915;SDS011;8057;47.830;-3.870;2023-08-30T03:40:40;5.10;;;2.13;;
15915;SDS011;8057;47.830;-3.870;2023-08-30T03:44:50;5.60;;;2.90;;
15915;SDS011;8057;47.830;-3.870;2023-08-30T03:49:00;8.20;;;3.00;;
15915;SDS011;8057;47.830;-3.870;2023-08-30T03:53:09;7.10;;;2.77;;
15915;SDS011;8057;47.830;-3.870;2023-08-30T03:57:18;5.47;;;2.73;;
15915;SDS011;8057;47.830;-3.870;2023-08-30T04:01:29;5.37;;;2.87;;
15915;SDS011;8057;47.830;-3.870;2023-08-30T04:05:38;2.27;;;2.07;;
15915;SDS011;8057;47.830;-3.870;2023-08-30T04:09:48;2.40;;;1.87;;
15915;SDS011;8057;47.830;-3.870;2023-08-30T04:13:58;3.17;;;1.67;;
15915;SDS011;8057;47.830;-3.870;2023-08-30T04:18:08;2.30;;;1.80;;
15915;SDS011;8057;47.830;-3.870;2023-08-30T04:22:18;2.47;;;2.07;;
15915;SDS011;8057;47.830;-3.870;2023-08-30T04:26:28;4.63;;;2.33;;
15915;SDS011;8057;47.830;-3.870;2023-08-30T04:30:37;3.13;;;2.17;;
15915;SDS011;8057;47.830;-3.870;2023-08-30T04:34:48;5.40;;;2.83;;
15915;SDS011;8057;47.830;-3.870;2023-08-30T04:38:57;3.60;;;2.60;;
15915;SDS011;8057;47.830;-3.870;2023-08-30T04:43:09;4.30;;;2.47;;
15915;SDS011;8057;47.830;-3.870;2023-08-30T04:47:18;3.67;;;2.23;;
15915;SDS011;8057;47.830;-3.870;2023-08-30T04:51:29;2.87;;;2.00;;
15915;SDS011;8057;47.830;-3.870;2023-08-30T04:55:38;3.10;;;2.40;;
15915;SDS011;8057;47.830;-3.870;2023-08-30T04:59:47;4.73;;;2.40;;
15915;SDS011;8057;47.830;-3.870;2023-08-30T05:03:56;5.73;;;2.40;;
15915;SDS011;8057;47.830;-3.870;2023-08-30T05:08:07;4.27;;;2.50;;
15915;SDS011;8057;47.830;-3.870;2023-08-30T05:12:18;3.40;;;2.00;;
15915;SDS011;8057;47.830;-3.870;2023-08-30T05:16:27;2.10;;;1.50;;
15915;SDS011;8057;47.830;-3.870;2023-08-30T05:20:36;3.03;;;1.73;;
15915;SDS011;8057;47.830;-3.870;2023-08-30T05:24:47;4.70;;;1.93;;
15915;SDS011;8057;47.830;-3.870;2023-08-30T05:28:57;3.70;;;2.20;;
15915;SDS011;8057;47.830;-3.870;2023-08-30T05:33:06;4.33;;;2.70;;
15915;SDS011;8057;47.830;-3.870;2023-08-30T05:37:15;5.10;;;2.43;;
15915;SDS011;8057;47.830;-3.870;2023-08-30T05:41:26;3.37;;;2.03;;
15915;SDS011;8057;47.830;-3.870;2023-08-30T05:45:35;3.00;;;2.17;;
15915;SDS011;8057;47.830;-3.870;2023-08-30T05:49:45;2.80;;;1.50;;
15915;SDS011;8057;47.830;-3.870;2023-08-30T05:53:54;1.77;;;1.63;;
15915;SDS011;8057;47.830;-3.870;2023-08-30T05:58:07;2.27;;;1.80;;
15915;SDS011;8057;47.830;-3.870;2023-08-30T06:02:16;4.47;;;2.10;;
15915;SDS011;8057;47.830;-3.870;2023-08-30T06:06:25;3.37;;;1.70;;
15915;SDS011;8057;47.830;-3.870;2023-08-30T06:10:35;2.73;;;1.80;;
15915;SDS011;8057;47.830;-3.870;2023-08-30T06:14:47;2.93;;;2.20;;
15915;SDS011;8057;47.830;-3.870;2023-08-30T06:18:59;2.57;;;1.97;;
15915;SDS011;8057;47.830;-3.870;2023-08-30T06:23:08;3.23;;;1.67;;
15915;SDS011;8057;47.830;-3.870;2023-08-30T06:27:17;3.23;;;2.07;;
15915;SDS011;8057;47.830;-3.870;2023-08-30T06:31:28;2.73;;;2.30;;
15915;SDS011;8057;47.830;-3.870;2023-08-30T06:35:39;3.47;;;2.33;;
15915;SDS011;8057;47.830;-3.870;2023-08-30T06:40:04;2.63;;;1.67;;
15915;SDS011;8057;47.830;-3.870;2023-08-30T06:49:14;3.17;;;2.07;;
15915;SDS011;8057;47.830;-3.870;2023-08-30T06:53:25;5.17;;;3.10;;
15915;SDS011;8057;47.830;-3.870;2023-08-30T06:57:37;4.53;;;2.43;;
15915;SDS011;8057;47.830;-3.870;2023-08-30T07:02:03;5.17;;;2.40;;
15915;SDS011;8057;47.830;-3.870;2023-08-30T07:06:17;5.03;;;2.70;;
15915;SDS011;8057;47.830;-3.870;2023-08-30T07:10:26;4.00;;;2.47;;
15915;SDS011;8057;47.830;-3.870;2023-08-30T07:14:41;7.20;;;2.70;;
15915;SDS011;8057;47.830;-3.870;2023-08-30T07:18:56;4.50;;;2.60;;
15915;SDS011;8057;47.830;-3.870;2023-08-30T07:23:13;4.97;;;3.00;;
15915;SDS011;8057;47.830;-3.870;2023-08-30T07:27:41;6.57;;;2.87;;
15915;SDS011;8057;47.830;-3.870;2023-08-30T07:31:59;6.03;;;2.53;;
15915;SDS011;8057;47.830;-3.870;2023-08-30T07:36:20;6.60;;;3.00;;
15915;SDS011;8057;47.830;-3.870;2023-08-30T07:40:53;5.70;;;2.67;;
15915;SDS011;8057;47.830;-3.870;2023-08-30T07:45:02;7.10;;;2.97;;
15915;SDS011;8057;47.830;-3.870;2023-08-30T07:49:12;4.00;;;2.30;;
15915;SDS011;8057;47.830;-3.870;2023-08-30T07:53:21;7.07;;;3.10;;
15915;SDS011;8057;47.830;-3.870;2023-08-30T07:57:32;6.80;;;2.90;;
15915;SDS011;8057;47.830;-3.870;2023-08-30T08:01:41;6.43;;;2.77;;
15915;SDS011;8057;47.830;-3.870;2023-08-30T08:06:00;7.40;;;2.97;;
15915;SDS011;8057;47.830;-3.870;2023-08-30T08:10:12;7.63;;;3.20;;
15915;SDS011;8057;47.830;-3.870;2023-08-30T08:14:23;9.90;;;3.40;;
15915;SDS011;8057;47.830;-3.870;2023-08-30T08:18:50;5.93;;;2.73;;
15915;SDS011;8057;47.830;-3.870;2023-08-30T08:23:03;7.00;;;3.10;;
15915;SDS011;8057;47.830;-3.870;2023-08-30T08:27:13;6.93;;;3.00;;
15915;SDS011;8057;47.830;-3.870;2023-08-30T08:31:24;5.97;;;2.90;;
15915;SDS011;8057;47.830;-3.870;2023-08-30T08:35:34;5.67;;;2.73;;
15915;SDS011;8057;47.830;-3.870;2023-08-30T08:39:44;8.40;;;2.80;;
15915;SDS011;8057;47.830;-3.870;2023-08-30T08:43:53;10.23;;;3.27;;
15915;SDS011;8057;47.830;-3.870;2023-08-30T08:48:05;7.63;;;2.70;;
15915;SDS011;8057;47.830;-3.870;2023-08-30T08:52:15;7.73;;;2.67;;
15915;SDS011;8057;47.830;-3.870;2023-08-30T08:56:37;8.33;;;3.27;;
15915;SDS011;8057;47.830;-3.870;2023-08-30T09:00:47;6.77;;;2.67;;
15915;SDS011;8057;47.830;-3.870;2023-08-30T09:04:58;7.80;;;2.73;;
15915;SDS011;8057;47.830;-3.870;2023-08-30T09:09:08;8.90;;;3.00;;
15915;SDS011;8057;47.830;-3.870;2023-08-30T09:13:18;7.10;;;2.80;;
15915;SDS011;8057;47.830;-3.870;2023-08-30T09:17:35;6.93;;;3.07;;
15915;SDS011;8057;47.830;-3.870;2023-08-30T09:21:51;9.00;;;2.70;;
15915;SDS011;8057;47.830;-3.870;2023-08-30T09:26:01;11.83;;;3.27;;
15915;SDS011;8057;47.830;-3.870;2023-08-30T09:30:10;10.87;;;3.20;;
15915;SDS011;8057;47.830;-3.870;2023-08-30T09:34:22;6.10;;;2.30;;
15915;SDS011;8057;47.830;-3.870;2023-08-30T09:38:33;7.47;;;2.60;;
15915;SDS011;8057;47.830;-3.870;2023-08-30T09:42:44;10.13;;;2.83;;
15915;SDS011;8057;47.830;-3.870;2023-08-30T09:47:14;8.67;;;3.03;;
15915;SDS011;8057;47.830;-3.870;2023-08-30T09:51:23;9.77;;;3.10;;
15915;SDS011;8057;47.830;-3.870;2023-08-30T09:55:36;7.30;;;2.70;;
15915;SDS011;8057;47.830;-3.870;2023-08-30T09:59:46;8.47;;;2.87;;
15915;SDS011;8057;47.830;-3.870;2023-08-30T10:03:56;7.97;;;2.93;;
15915;SDS011;8057;47.830;-3.870;2023-08-30T10:08:07;6.70;;;2.63;;
15915;SDS011;8057;47.830;-3.870;2023-08-30T10:12:18;7.87;;;2.70;;
15915;SDS011;8057;47.830;-3.870;2023-08-30T10:16:30;12.27;;;2.97;;
15915;SDS011;8057;47.830;-3.870;2023-08-30T10:20:44;7.70;;;2.93;;
15915;SDS011;8057;47.830;-3.870;2023-08-30T10:24:56;7.57;;;3.00;;
15915;SDS011;8057;47.830;-3.870;2023-08-30T10:29:18;8.43;;;3.13;;
15915;SDS011;8057;47.830;-3.870;2023-08-30T10:33:30;8.70;;;3.03;;
15915;SDS011;8057;47.830;-3.870;2023-08-30T10:37:39;8.80;;;3.57;;
15915;SDS011;8057;47.830;-3.870;2023-08-30T10:41:55;7.10;;;2.13;;
15915;SDS011;8057;47.830;-3.870;2023-08-30T10:46:06;9.80;;;2.70;;
15915;SDS011;8057;47.830;-3.870;2023-08-30T10:50:18;9.77;;;3.27;;
15915;SDS011;8057;47.830;-3.870;2023-08-30T10:54:36;7.77;;;2.57;;
15915;SDS011;8057;47.830;-3.870;2023-08-30T10:58:46;8.67;;;3.00;;
15915;SDS011;8057;47.830;-3.870;2023-08-30T11:03:01;8.53;;;2.97;;
15915;SDS011;8057;47.830;-3.870;2023-08-30T11:07:10;7.63;;;3.00;;
15915;SDS011;8057;47.830;-3.870;2023-08-30T11:11:20;12.33;;;3.50;;
15915;SDS011;8057;47.830;-3.870;2023-08-30T11:15:29;7.67;;;2.83;;
15915;SDS011;8057;47.830;-3.870;2023-08-30T11:19:40;5.77;;;2.70;;
15915;SDS011;8057;47.830;-3.870;2023-08-30T11:23:49;6.43;;;2.73;;
15915;SDS011;8057;47.830;-3.870;2023-08-30T11:28:02;8.17;;;2.77;;
15915;SDS011;8057;47.830;-3.870;2023-08-30T11:32:12;7.27;;;2.50;;
15915;SDS011;8057;47.830;-3.870;2023-08-30T11:36:23;8.50;;;2.93;;
15915;SDS011;8057;47.830;-3.870;2023-08-30T11:40:34;6.43;;;2.33;;
15915;SDS011;8057;47.830;-3.870;2023-08-30T11:44:43;9.37;;;2.63;;
15915;SDS011;8057;47.830;-3.870;2023-08-30T11:48:53;7.73;;;2.80;;
15915;SDS011;8057;47.830;-3.870;2023-08-30T11:53:04;8.43;;;2.93;;
15915;SDS011;8057;47.830;-3.870;2023-08-30T11:57:14;8.17;;;2.40;;
15915;SDS011;8057;47.830;-3.870;2023-08-30T12:01:23;12.33;;;3.30;;
15915;SDS011;8057;47.830;-3.870;2023-08-30T12:05:33;9.27;;;2.57;;
15915;SDS011;8057;47.830;-3.870;2023-08-30T12:09:45;10.33;;;3.30;;
15915;SDS011;8057;47.830;-3.870;2023-08-30T12:13:54;7.93;;;2.53;;
15915;SDS011;8057;47.830;-3.870;2023-08-30T12:18:10;10.77;;;3.10;;
15915;SDS011;8057;47.830;-3.870;2023-08-30T12:22:19;8.03;;;3.17;;
15915;SDS011;8057;47.830;-3.870;2023-08-30T12:26:32;7.60;;;2.47;;
15915;SDS011;8057;47.830;-3.870;2023-08-30T12:30:41;8.53;;;3.00;;
15915;SDS011;8057;47.830;-3.870;2023-08-30T12:34:50;12.93;;;3.53;;
15915;SDS011;8057;47.830;-3.870;2023-08-30T12:38:59;7.20;;;3.20;;
15915;SDS011;8057;47.830;-3.870;2023-08-30T12:43:10;10.53;;;3.40;;
15915;SDS011;8057;47.830;-3.870;2023-08-30T12:47:19;6.27;;;2.50;;
15915;SDS011;8057;47.830;-3.870;2023-08-30T12:51:29;10.23;;;2.90;;
15915;SDS011;8057;47.830;-3.870;2023-08-30T12:55:38;6.77;;;2.43;;
15915;SDS011;8057;47.830;-3.870;2023-08-30T12:59:49;12.07;;;2.93;;
15915;SDS011;8057;47.830;-3.870;2023-08-30T13:03:58;9.40;;;2.87;;
15915;SDS011;8057;47.830;-3.870;2023-08-30T13:08:07;8.20;;;2.63;;
15915;SDS011;8057;47.830;-3.870;2023-08-30T13:12:17;9.30;;;3.73;;
15915;SDS011;8057;47.830;-3.870;2023-08-30T13:16:27;8.07;;;2.90;;
15915;SDS011;8057;47.830;-3.870;2023-08-30T13:20:39;12.13;;;3.40;;
15915;SDS011;8057;47.830;-3.870;2023-08-30T13:24:49;7.50;;;3.20;;
15915;SDS011;8057;47.830;-3.870;2023-08-30T13:28:58;10.53;;;2.97;;
15915;SDS011;8057;47.830;-3.870;2023-08-30T13:33:11;7.97;;;3.00;;
15915;SDS011;8057;47.830;-3.870;2023-08-30T13:37:21;8.07;;;3.43;;
15915;SDS011;8057;47.830;-3.870;2023-08-30T13:41:30;7.10;;;2.70;;
15915;SDS011;8057;47.830;-3.870;2023-08-30T13:45:40;9.70;;;2.93;;
15915;SDS011;8057;47.830;-3.870;2023-08-30T13:49:51;8.30;;;2.70;;
15915;SDS011;8057;47.830;-3.870;2023-08-30T13:54:01;6.97;;;2.80;;
15915;SDS011;8057;47.830;-3.870;2023-08-30T13:58:10;8.47;;;2.77;;
15915;SDS011;8057;47.830;-3.870;2023-08-30T14:02:19;10.67;;;3.40;;
15915;SDS011;8057;47.830;-3.870;2023-08-30T14:06:31;6.33;;;2.50;;
15915;SDS011;8057;47.830;-3.870;2023-08-30T14:10:40;9.63;;;2.50;;
15915;SDS011;8057;47.830;-3.870;2023-08-30T14:14:49;11.37;;;3.03;;
15915;SDS011;8057;47.830;-3.870;2023-08-30T14:18:59;11.07;;;2.50;;
15915;SDS011;8057;47.830;-3.870;2023-08-30T14:23:13;9.00;;;3.60;;
15915;SDS011;8057;47.830;-3.870;2023-08-30T14:27:23;7.77;;;2.50;;
15915;SDS011;8057;47.830;-3.870;2023-08-30T14:31:32;7.30;;;2.50;;
15915;SDS011;8057;47.830;-3.870;2023-08-30T14:35:41;7.60;;;2.50;;
15915;SDS011;8057;47.830;-3.870;2023-08-30T14:39:52;9.43;;;2.43;;
15915;SDS011;8057;47.830;-3.870;2023-08-30T14:44:02;9.50;;;2.67;;
15915;SDS011;8057;47.830;-3.870;2023-08-30T14:48:11;8.23;;;2.60;;
15915;SDS011;8057;47.830;-3.870;2023-08-30T14:52:20;10.57;;;3.13;;
15915;SDS011;8057;47.830;-3.870;2023-08-30T14:56:31;7.10;;;2.63;;
15915;SDS011;8057;47.830;-3.870;2023-08-30T15:00:40;9.00;;;2.70;;
15915;SDS011;8057;47.830;-3.870;2023-08-30T15:04:49;10.30;;;2.83;;
15915;SDS011;8057;47.830;-3.870;2023-08-30T15:08:58;6.70;;;2.87;;
15915;SDS011;8057;47.830;-3.870;2023-08-30T15:13:11;7.30;;;2.50;;
15915;SDS011;8057;47.830;-3.870;2023-08-30T15:17:20;10.97;;;3.00;;
15915;SDS011;8057;47.830;-3.870;2023-08-30T15:21:29;8.83;;;3.50;;
15915;SDS011;8057;47.830;-3.870;2023-08-30T15:25:39;7.97;;;2.70;;
15915;SDS011;8057;47.830;-3.870;2023-08-30T15:29:49;9.70;;;3.03;;
15915;SDS011;8057;47.830;-3.870;2023-08-30T15:34:01;7.07;;;2.30;;
15915;SDS011;8057;47.830;-3.870;2023-08-30T15:38:10;9.03;;;2.93;;
15915;SDS011;8057;47.830;-3.870;2023-08-30T15:42:21;5.47;;;2.60;;
15915;SDS011;8057;47.830;-3.870;2023-08-30T15:46:31;6.23;;;2.23;;
15915;SDS011;8057;47.830;-3.870;2023-08-30T15:50:41;7.43;;;2.83;;
15915;SDS011;8057;47.830;-3.870;2023-08-30T15:54:50;6.27;;;2.30;;
15915;SDS011;8057;47.830;-3.870;2023-08-30T15:59:01;11.60;;;2.87;;
15915;SDS011;8057;47.830;-3.870;2023-08-30T16:03:12;14.33;;;3.77;;
15915;SDS011;8057;47.830;-3.870;2023-08-30T16:07:22;12.87;;;3.33;;
15915;SDS011;8057;47.830;-3.870;2023-08-30T16:11:31;9.00;;;3.00;;
15915;SDS011;8057;47.830;-3.870;2023-08-30T16:15:40;8.97;;;2.87;;
15915;SDS011;8057;47.830;-3.870;2023-08-30T16:19:51;18.67;;;4.17;;
15915;SDS011;8057;47.830;-3.870;2023-08-30T16:24:00;5.97;;;2.20;;
15915;SDS011;8057;47.830;-3.870;2023-08-30T16:28:11;7.20;;;2.83;;
15915;SDS011;8057;47.830;-3.870;2023-08-30T16:32:21;9.33;;;2.90;;
15915;SDS011;8057;47.830;-3.870;2023-08-30T16:36:33;8.50;;;2.87;;
15915;SDS011;8057;47.830;-3.870;2023-08-30T16:40:43;10.10;;;3.43;;
15915;SDS011;8057;47.830;-3.870;2023-08-30T16:44:53;6.70;;;2.50;;
15915;SDS011;8057;47.830;-3.870;2023-08-30T16:49:03;9.50;;;2.90;;
15915;SDS011;8057;47.830;-3.870;2023-08-30T16:53:15;5.97;;;2.43;;
15915;SDS011;8057;47.830;-3.870;2023-08-30T16:57:24;8.90;;;3.10;;
15915;SDS011;8057;47.830;-3.870;2023-08-30T17:01:36;6.50;;;2.90;;
15915;SDS011;8057;47.830;-3.870;2023-08-30T17:05:45;9.47;;;2.97;;
15915;SDS011;8057;47.830;-3.870;2023-08-30T17:09:56;8.23;;;2.63;;
15915;SDS011;8057;47.830;-3.870;2023-08-30T17:14:05;6.67;;;2.97;;
15915;SDS011;8057;47.830;-3.870;2023-08-30T17:18:14;7.77;;;2.37;;
15915;SDS011;8057;47.830;-3.870;2023-08-30T17:22:25;9.77;;;3.07;;
15915;SDS011;8057;47.830;-3.870;2023-08-30T17:26:42;8.53;;;3.40;;
15915;SDS011;8057;47.830;-3.870;2023-08-30T17:30:55;14.87;;;3.20;;
15915;SDS011;8057;47.830;-3.870;2023-08-30T17:35:07;8.20;;;2.70;;
15915;SDS011;8057;47.830;-3.870;2023-08-30T17:39:25;8.53;;;2.90;;
15915;SDS011;8057;47.830;-3.870;2023-08-30T17:43:47;9.53;;;2.87;;
15915;SDS011;8057;47.830;-3.870;2023-08-30T17:47:57;7.53;;;2.37;;
15915;SDS011;8057;47.830;-3.870;2023-08-30T17:52:14;8.77;;;2.97;;
15915;SDS011;8057;47.830;-3.870;2023-08-30T17:56:28;7.13;;;2.70;;
15915;SDS011;8057;47.830;-3.870;2023-08-30T18:00:41;12.07;;;3.10;;
15915;SDS011;8057;47.830;-3.870;2023-08-30T18:05:03;9.40;;;2.40;;
15915;SDS011;8057;47.830;-3.870;2023-08-30T18:09:28;6.47;;;2.33;;
15915;SDS011;8057;47.830;-3.870;2023-08-30T18:13:42;8.60;;;2.67;;
15915;SDS011;8057;47.830;-3.870;2023-08-30T18:18:15;8.03;;;2.60;;
15915;SDS011;8057;47.830;-3.870;2023-08-30T18:22:39;7.40;;;2.60;;
15915;SDS011;8057;47.830;-3.870;2023-08-30T18:27:02;10.07;;;3.00;;
15915;SDS011;8057;47.830;-3.870;2023-08-30T18:31:22;4.57;;;2.10;;
15915;SDS011;8057;47.830;-3.870;2023-08-30T18:35:54;7.00;;;2.23;;
15915;SDS011;8057;47.830;-3.870;2023-08-30T18:40:20;6.30;;;2.57;;
15915;SDS011;8057;47.830;-3.870;2023-08-30T18:44:52;9.47;;;2.80;;
15915;SDS011;8057;47.830;-3.870;2023-08-30T18:49:07;5.70;;;2.43;;
15915;SDS011;8057;47.830;-3.870;2023-08-30T18:53:25;7.50;;;3.07;;
15915;SDS011;8057;47.830;-3.870;2023-08-30T18:57:36;6.37;;;2.63;;
15915;SDS011;8057;47.830;-3.870;2023-08-30T19:02:00;8.30;;;2.60;;
15915;SDS011;8057;47.830;-3.870;2023-08-30T19:06:16;7.07;;;2.57;;
15915;SDS011;8057;47.830;-3.870;2023-08-30T19:10:40;6.53;;;2.37;;
15915;SDS011;8057;47.830;-3.870;2023-08-30T19:15:00;9.67;;;2.67;;
15915;SDS011;8057;47.830;-3.870;2023-08-30T19:19:18;8.10;;;2.90;;
15915;SDS011;8057;47.830;-3.870;2023-08-30T19:23:32;10.17;;;3.00;;
15915;SDS011;8057;47.830;-3.870;2023-08-30T19:28:02;7.77;;;2.57;;
15915;SDS011;8057;47.830;-3.870;2023-08-30T19:32:36;7.57;;;2.80;;
15915;SDS011;8057;47.830;-3.870;2023-08-30T19:37:02;11.90;;;3.10;;
15915;SDS011;8057;47.830;-3.870;2023-08-30T19:41:29;8.73;;;2.53;;
15915;SDS011;8057;47.830;-3.870;2023-08-30T19:46:03;9.03;;;2.23;;
15915;SDS011;8057;47.830;-3.870;2023-08-30T19:50:22;8.53;;;2.93;;
15915;SDS011;8057;47.830;-3.870;2023-08-30T19:54:42;10.80;;;3.37;;
15915;SDS011;8057;47.830;-3.870;2023-08-30T19:59:06;8.63;;;3.13;;
15915;SDS011;8057;47.830;-3.870;2023-08-30T20:03:37;7.27;;;2.53;;
15915;SDS011;8057;47.830;-3.870;2023-08-30T20:08:10;6.30;;;2.30;;
15915;SDS011;8057;47.830;-3.870;2023-08-30T20:12:38;7.03;;;2.80;;
15915;SDS011;8057;47.830;-3.870;2023-08-30T20:17:02;5.90;;;2.40;;
15915;SDS011;8057;47.830;-3.870;2023-08-30T20:21:40;7.80;;;2.73;;
15915;SDS011;8057;47.830;-3.870;2023-08-30T20:26:14;6.17;;;2.23;;
15915;SDS011;8057;47.830;-3.870;2023-08-30T20:30:34;5.93;;;2.63;;
15915;SDS011;8057;47.830;-3.870;2023-08-30T20:35:05;7.43;;;3.00;;
15915;SDS011;8057;47.830;-3.870;2023-08-30T20:39:28;8.40;;;2.77;;
15915;SDS011;8057;47.830;-3.870;2023-08-30T20:44:02;6.93;;;3.00;;
15915;SDS011;8057;47.830;-3.870;2023-08-30T20:48:39;7.87;;;2.60;;
15915;SDS011;8057;47.830;-3.870;2023-08-30T20:53:16;5.83;;;2.47;;
15915;SDS011;8057;47.830;-3.870;2023-08-30T20:57:59;8.03;;;2.63;;
15915;SDS011;8057;47.830;-3.870;2023-08-30T21:02:34;8.87;;;2.60;;
15915;SDS011;8057;47.830;-3.870;2023-08-30T21:07:04;7.63;;;2.53;;
15915;SDS011;8057;47.830;-3.870;2023-08-30T21:11:19;8.27;;;2.63;;
15915;SDS011;8057;47.830;-3.870;2023-08-30T21:15:44;7.77;;;2.50;;
15915;SDS011;8057;47.830;-3.870;2023-08-30T21:20:10;5.10;;;2.70;;
15915;SDS011;8057;47.830;-3.870;2023-08-30T21:24:40;5.83;;;2.67;;
15915;SDS011;8057;47.830;-3.870;2023-08-30T21:28:51;6.10;;;2.40;;
15915;SDS011;8057;47.830;-3.870;2023-08-30T21:33:24;4.90;;;2.63;;
15915;SDS011;8057;47.830;-3.870;2023-08-30T21:37:50;4.43;;;2.20;;
15915;SDS011;8057;47.830;-3.870;2023-08-30T21:42:20;5.60;;;2.27;;
15915;SDS011;8057;47.830;-3.870;2023-08-30T21:46:51;6.27;;;2.30;;
15915;SDS011;8057;47.830;-3.870;2023-08-30T21:51:11;6.50;;;2.60;;
15915;SDS011;8057;47.830;-3.870;2023-08-30T21:55:44;3.93;;;2.07;;
15915;SDS011;8057;47.830;-3.870;2023-08-30T22:00:11;6.43;;;2.40;;
15915;SDS011;8057;47.830;-3.870;2023-08-30T22:04:39;5.90;;;2.37;;
15915;SDS011;8057;47.830;-3.870;2023-08-30T22:09:10;7.93;;;2.87;;
15915;SDS011;8057;47.830;-3.870;2023-08-30T22:13:39;7.40;;;2.73;;
15915;SDS011;8057;47.830;-3.870;2023-08-30T22:18:05;6.00;;;2.57;;
15915;SDS011;8057;47.830;-3.870;2023-08-30T22:22:34;7.43;;;2.57;;
15915;SDS011;8057;47.830;-3.870;2023-08-30T22:27:03;4.77;;;2.40;;
15915;SDS011;8057;47.830;-3.870;2023-08-30T22:31:21;4.13;;;2.33;;
15915;SDS011;8057;47.830;-3.870;2023-08-30T22:35:48;3.97;;;2.30;;
15915;SDS011;8057;47.830;-3.870;2023-08-30T22:40:27;6.27;;;2.53;;
15915;SDS011;8057;47.830;-3.870;2023-08-30T22:44:51;5.23;;;1.97;;
15915;SDS011;8057;47.830;-3.870;2023-08-30T22:49:19;4.77;;;2.20;;
15915;SDS011;8057;47.830;-3.870;2023-08-30T22:53:52;2.87;;;2.10;;
15915;SDS011;8057;47.830;-3.870;2023-08-30T22:58:18;6.03;;;2.93;;
15915;SDS011;8057;47.830;-3.870;2023-08-30T23:02:36;6.63;;;2.33;;
15915;SDS011;8057;47.830;-3.870;2023-08-30T23:07:08;9.73;;;2.47;;
15915;SDS011;8057;47.830;-3.870;2023-08-30T23:11:40;7.33;;;2.90;;
15915;SDS011;8057;47.830;-3.870;2023-08-30T23:15:59;5.00;;;2.37;;
15915;SDS011;8057;47.830;-3.870;2023-08-30T23:20:34;5.53;;;2.27;;
15915;SDS011;8057;47.830;-3.870;2023-08-30T23:24:55;9.13;;;2.97;;
15915;SDS011;8057;47.830;-3.870;2023-08-30T23:29:22;6.67;;;2.40;;
15915;SDS011;8057;47.830;-3.870;2023-08-30T23:33:34;6.57;;;3.00;;
15915;SDS011;8057;47.830;-3.870;2023-08-30T23:38:03;4.63;;;2.70;;
15915;SDS011;8057;47.830;-3.870;2023-08-30T23:42:35;4.17;;;2.70;;
15915;SDS011;8057;47.830;-3.870;2023-08-30T23:47:12;5.70;;;2.30;;
15915;SDS011;8057;47.830;-3.870;2023-08-30T23:51:27;5.93;;;2.80;;
15915;SDS011;8057;47.830;-3.870;2023-08-30T23:55:53;6.17;;;2.73;;
